sensor_id;sensor_type;location;lat;lon;timestamp;pressure;altitude;pressure_sealevel;temperature;humidity
75867;BME280;64513;56.258;43.980;2023-04-25T00:02:21;99858.29;;;19.51;39.08
75867;BME280;64513;56.258;43.980;2023-04-25T00:04:46;99852.44;;;19.49;39.10
75867;BME280;64513;56.258;43.980;2023-04-25T00:07:30;99848.52;;;19.46;39.20
75867;BME280;64513;56.258;43.980;2023-04-25T00:09:54;99852.98;;;19.42;39.35
75867;BME280;64513;56.258;43.980;2023-04-25T00:12:19;99855.98;;;19.41;39.43
75867;BME280;64513;56.258;43.980;2023-04-25T00:14:44;99862.01;;;19.38;39.47
75867;BME280;64513;56.258;43.980;2023-04-25T00:17:08;99853.41;;;19.32;39.62
75867;BME280;64513;56.258;43.980;2023-04-25T00:19:32;99859.11;;;19.31;39.61
75867;BME280;64513;56.258;43.980;2023-04-25T00:21:57;99849.04;;;19.27;39.63
75867;BME280;64513;56.258;43.980;2023-04-25T00:24:21;99849.04;;;19.27;39.63
75867;BME280;64513;56.258;43.980;2023-04-25T00:26:45;99848.58;;;19.25;39.76
75867;BME280;64513;56.258;43.980;2023-04-25T00:29:09;99852.38;;;19.24;39.89
75867;BME280;64513;56.258;43.980;2023-04-25T00:31:34;99863.75;;;19.21;39.93
75867;BME280;64513;56.258;43.980;2023-04-25T00:33:58;99849.92;;;19.19;40.06
75867;BME280;64513;56.258;43.980;2023-04-25T00:36:22;99849.01;;;19.15;40.04
75867;BME280;64513;56.258;43.980;2023-04-25T00:38:47;99858.16;;;19.14;40.11
75867;BME280;64513;56.258;43.980;2023-04-25T00:41:12;99848.09;;;19.11;40.03
75867;BME280;64513;56.258;43.980;2023-04-25T00:43:37;99838.03;;;19.08;40.03
75867;BME280;64513;56.258;43.980;2023-04-25T00:46:01;99841.83;;;19.07;40.18
75867;BME280;64513;56.258;43.980;2023-04-25T00:48:25;99845.61;;;19.06;40.04
75867;BME280;64513;56.258;43.980;2023-04-25T00:50:52;99837.15;;;19.04;40.07
75867;BME280;64513;56.258;43.980;2023-04-25T00:53:17;99842.51;;;19.04;40.34
75867;BME280;64513;56.258;43.980;2023-04-25T00:55:41;99854.66;;;19.02;40.31
75867;BME280;64513;56.258;43.980;2023-04-25T00:58:05;99846.95;;;19.00;40.47
75867;BME280;64513;56.258;43.980;2023-04-25T01:00:29;99843.81;;;18.98;40.48
75867;BME280;64513;56.258;43.980;2023-04-25T01:02:54;99857.22;;;18.98;40.41
75867;BME280;64513;56.258;43.980;2023-04-25T01:05:18;99842.25;;;18.97;40.55
75867;BME280;64513;56.258;43.980;2023-04-25T01:07:42;99844.47;;;18.95;40.79
75867;BME280;64513;56.258;43.980;2023-04-25T01:10:07;99855.97;;;18.96;40.82
75867;BME280;64513;56.258;43.980;2023-04-25T01:12:32;99854.73;;;18.93;40.91
75867;BME280;64513;56.258;43.980;2023-04-25T01:14:56;99854.27;;;18.91;41.06
75867;BME280;64513;56.258;43.980;2023-04-25T01:17:21;99845.78;;;18.89;41.00
75867;BME280;64513;56.258;43.980;2023-04-25T01:19:45;99854.17;;;18.87;41.12
75867;BME280;64513;56.258;43.980;2023-04-25T01:22:10;99851.03;;;18.85;41.10
75867;BME280;64513;56.258;43.980;2023-04-25T01:24:36;99845.54;;;18.82;41.15
75867;BME280;64513;56.258;43.980;2023-04-25T01:27:01;99853.12;;;18.80;41.24
75867;BME280;64513;56.258;43.980;2023-04-25T01:29:26;99859.13;;;18.77;41.34
75867;BME280;64513;56.258;43.980;2023-04-25T01:31:52;99854.42;;;18.74;41.27
75867;BME280;64513;56.258;43.980;2023-04-25T01:34:16;99858.56;;;18.71;41.39
75867;BME280;64513;56.258;43.980;2023-04-25T01:36:40;99869.59;;;18.70;41.44
75867;BME280;64513;56.258;43.980;2023-04-25T01:39:05;99858.75;;;18.66;41.27
75867;BME280;64513;56.258;43.980;2023-04-25T01:41:30;99867.11;;;18.65;41.31
75867;BME280;64513;56.258;43.980;2023-04-25T01:43:55;99865.54;;;18.64;41.33
75867;BME280;64513;56.258;43.980;2023-04-25T01:46:20;99863.97;;;18.63;41.28
75867;BME280;64513;56.258;43.980;2023-04-25T01:48:44;99863.51;;;18.61;41.31
75867;BME280;64513;56.258;43.980;2023-04-25T01:51:09;99879.12;;;18.58;41.29
75867;BME280;64513;56.258;43.980;2023-04-25T01:53:34;99868.27;;;18.55;41.34
75867;BME280;64513;56.258;43.980;2023-04-25T01:55:58;99868.12;;;18.51;41.37
75867;BME280;64513;56.258;43.980;2023-04-25T01:58:22;99871.13;;;18.50;41.42
75867;BME280;64513;56.258;43.980;2023-04-25T02:00:47;99874.13;;;18.48;41.44
75867;BME280;64513;56.258;43.980;2023-04-25T02:03:11;99872.88;;;18.46;41.50
75867;BME280;64513;56.258;43.980;2023-04-25T02:05:37;99873.88;;;18.41;41.51
75867;BME280;64513;56.258;43.980;2023-04-25T02:08:03;99869.81;;;18.35;41.60
75867;BME280;64513;56.258;43.980;2023-04-25T02:10:27;99878.48;;;18.32;41.67
75867;BME280;64513;56.258;43.980;2023-04-25T02:12:51;99868.09;;;18.31;41.74
75867;BME280;64513;56.258;43.980;2023-04-25T02:15:16;99866.67;;;18.33;41.77
75867;BME280;64513;56.258;43.980;2023-04-25T02:17:40;99859.10;;;18.35;41.73
75867;BME280;64513;56.258;43.980;2023-04-25T02:20:07;99871.95;;;18.42;41.68
75867;BME280;64513;56.258;43.980;2023-04-25T02:22:31;99871.91;;;18.50;41.62
75867;BME280;64513;56.258;43.980;2023-04-25T02:24:56;99868.86;;;18.61;41.52
75867;BME280;64513;56.258;43.980;2023-04-25T02:27:20;99872.73;;;18.72;41.35
75867;BME280;64513;56.258;43.980;2023-04-25T02:29:45;99875.47;;;18.84;41.23
75867;BME280;64513;56.258;43.980;2023-04-25T02:32:09;99874.41;;;18.97;40.99
75867;BME280;64513;56.258;43.980;2023-04-25T02:34:33;99875.81;;;19.15;40.78
75867;BME280;64513;56.258;43.980;2023-04-25T02:36:58;99874.30;;;19.39;40.58
75867;BME280;64513;56.258;43.980;2023-04-25T02:39:22;99875.18;;;19.64;40.23
75867;BME280;64513;56.258;43.980;2023-04-25T02:41:46;99875.19;;;19.88;39.87
75867;BME280;64513;56.258;43.980;2023-04-25T02:44:10;99875.98;;;20.13;39.60
75867;BME280;64513;56.258;43.980;2023-04-25T02:46:35;99869.92;;;20.40;39.34
75867;BME280;64513;56.258;43.980;2023-04-25T02:48:59;99877.58;;;20.66;38.98
75867;BME280;64513;56.258;43.980;2023-04-25T02:51:23;99879.86;;;20.92;38.56
75867;BME280;64513;56.258;43.980;2023-04-25T02:53:47;99879.09;;;21.19;38.32
75867;BME280;64513;56.258;43.980;2023-04-25T02:56:11;99878.25;;;21.47;38.04
75867;BME280;64513;56.258;43.980;2023-04-25T02:58:35;99874.30;;;21.72;37.77
75867;BME280;64513;56.258;43.980;2023-04-25T03:01:00;99887.67;;;22.00;37.73
75867;BME280;64513;56.258;43.980;2023-04-25T03:03:24;99886.31;;;22.25;37.44
75867;BME280;64513;56.258;43.980;2023-04-25T03:05:49;99883.02;;;22.51;37.19
75867;BME280;64513;56.258;43.980;2023-04-25T03:08:13;99882.09;;;22.79;37.02
75867;BME280;64513;56.258;43.980;2023-04-25T03:13:05;99885.36;;;23.30;36.47
75867;BME280;64513;56.258;43.980;2023-04-25T03:15:29;99891.25;;;23.55;36.36
75867;BME280;64513;56.258;43.980;2023-04-25T03:17:53;99879.70;;;23.81;36.14
75867;BME280;64513;56.258;43.980;2023-04-25T03:20:17;99885.09;;;24.03;35.92
75867;BME280;64513;56.258;43.980;2023-04-25T03:22:41;99887.39;;;24.28;35.73
75867;BME280;64513;56.258;43.980;2023-04-25T03:25:07;99880.05;;;24.55;35.36
75867;BME280;64513;56.258;43.980;2023-04-25T03:27:31;99884.61;;;24.80;35.12
75867;BME280;64513;56.258;43.980;2023-04-25T03:29:55;99883.02;;;25.09;35.40
75867;BME280;64513;56.258;43.980;2023-04-25T03:32:19;99882.20;;;25.42;36.31
75867;BME280;64513;56.258;43.980;2023-04-25T03:34:43;99885.99;;;25.75;36.21
75867;BME280;64513;56.258;43.980;2023-04-25T03:37:08;99882.73;;;26.06;35.77
75867;BME280;64513;56.258;43.980;2023-04-25T03:39:32;99876.76;;;26.38;35.62
75867;BME280;64513;56.258;43.980;2023-04-25T03:41:56;99886.98;;;26.69;35.26
75867;BME280;64513;56.258;43.980;2023-04-25T03:44:20;99877.04;;;27.02;34.87
75867;BME280;64513;56.258;43.980;2023-04-25T03:46:45;99880.20;;;27.32;34.81
75867;BME280;64513;56.258;43.980;2023-04-25T03:49:09;99883.74;;;27.61;34.30
75867;BME280;64513;56.258;43.980;2023-04-25T03:51:34;99885.69;;;27.85;34.24
75867;BME280;64513;56.258;43.980;2023-04-25T03:53:58;99879.44;;;28.06;33.98
75867;BME280;64513;56.258;43.980;2023-04-25T03:56:22;99874.38;;;28.26;33.63
75867;BME280;64513;56.258;43.980;2023-04-25T03:58:46;99869.28;;;28.42;33.13
75867;BME280;64513;56.258;43.980;2023-04-25T04:01:10;99877.78;;;28.51;33.03
75867;BME280;64513;56.258;43.980;2023-04-25T04:03:35;99874.67;;;28.53;32.83
75867;BME280;64513;56.258;43.980;2023-04-25T04:05:59;99881.28;;;28.52;32.92
75867;BME280;64513;56.258;43.980;2023-04-25T04:08:25;99882.45;;;28.51;32.91
75867;BME280;64513;56.258;43.980;2023-04-25T04:10:49;99879.34;;;28.52;33.26
75867;BME280;64513;56.258;43.980;2023-04-25T04:13:13;99877.78;;;28.55;33.39
75867;BME280;64513;56.258;43.980;2023-04-25T04:15:37;99890.21;;;28.59;33.16
75867;BME280;64513;56.258;43.980;2023-04-25T04:18:01;99879.32;;;28.63;33.14
75867;BME280;64513;56.258;43.980;2023-04-25T04:20:27;99876.17;;;28.68;33.35
75867;BME280;64513;56.258;43.980;2023-04-25T04:22:52;99884.70;;;28.74;33.22
75867;BME280;64513;56.258;43.980;2023-04-25T04:25:16;99876.95;;;28.79;33.21
75867;BME280;64513;56.258;43.980;2023-04-25T04:27:40;99877.69;;;28.83;33.05
75867;BME280;64513;56.258;43.980;2023-04-25T04:30:07;99871.06;;;28.88;32.82
75867;BME280;64513;56.258;43.980;2023-04-25T04:32:31;99870.66;;;28.93;32.87
75867;BME280;64513;56.258;43.980;2023-04-25T04:34:57;99886.94;;;28.96;32.77
75867;BME280;64513;56.258;43.980;2023-04-25T04:37:21;99875.27;;;29.00;32.63
75867;BME280;64513;56.258;43.980;2023-04-25T04:39:45;99876.80;;;29.04;32.38
75867;BME280;64513;56.258;43.980;2023-04-25T04:42:10;99886.11;;;29.10;32.32
75867;BME280;64513;56.258;43.980;2023-04-25T04:44:34;99877.50;;;29.15;32.15
75867;BME280;64513;56.258;43.980;2023-04-25T04:46:59;99873.59;;;29.20;32.11
75867;BME280;64513;56.258;43.980;2023-04-25T04:49:25;99877.45;;;29.26;31.81
75867;BME280;64513;56.258;43.980;2023-04-25T04:51:49;99877.02;;;29.31;31.65
75867;BME280;64513;56.258;43.980;2023-04-25T04:54:16;99875.82;;;29.36;31.76
75867;BME280;64513;56.258;43.980;2023-04-25T04:56:40;99880.48;;;29.42;31.80
75867;BME280;64513;56.258;43.980;2023-04-25T04:59:04;99871.84;;;29.51;31.71
75867;BME280;64513;56.258;43.980;2023-04-25T05:01:29;99871.03;;;29.57;31.42
75867;BME280;64513;56.258;43.980;2023-04-25T05:03:53;99868.22;;;29.64;31.28
75867;BME280;64513;56.258;43.980;2023-04-25T05:06:19;99873.17;;;29.77;31.26
75867;BME280;64513;56.258;43.980;2023-04-25T05:08:43;99874.67;;;29.85;31.18
75867;BME280;64513;56.258;43.980;2023-04-25T05:11:07;99869.88;;;29.96;31.02
75867;BME280;64513;56.258;43.980;2023-04-25T05:13:32;99876.41;;;30.09;30.81
75867;BME280;64513;56.258;43.980;2023-04-25T05:15:56;99872.81;;;30.19;30.62
75867;BME280;64513;56.258;43.980;2023-04-25T05:18:20;99867.23;;;30.30;30.40
75867;BME280;64513;56.258;43.980;2023-04-25T05:20:45;99868.27;;;30.40;29.99
75867;BME280;64513;56.258;43.980;2023-04-25T05:23:09;99878.67;;;30.52;29.86
75867;BME280;64513;56.258;43.980;2023-04-25T05:25:33;99873.88;;;30.63;29.79
75867;BME280;64513;56.258;43.980;2023-04-25T05:27:57;99865.92;;;30.76;29.63
75867;BME280;64513;56.258;43.980;2023-04-25T05:30:22;99869.64;;;30.89;29.70
75867;BME280;64513;56.258;43.980;2023-04-25T05:32:46;99870.58;;;31.05;29.49
75867;BME280;64513;56.258;43.980;2023-04-25T05:35:12;99866.84;;;31.23;29.36
75867;BME280;64513;56.258;43.980;2023-04-25T05:37:36;99877.50;;;31.41;29.10
75867;BME280;64513;56.258;43.980;2023-04-25T05:40:00;99875.31;;;31.55;28.75
75867;BME280;64513;56.258;43.980;2023-04-25T05:42:27;99869.22;;;31.71;28.55
75867;BME280;64513;56.258;43.980;2023-04-25T05:44:51;99873.67;;;31.85;28.54
75867;BME280;64513;56.258;43.980;2023-04-25T05:47:16;99873.41;;;31.99;28.35
75867;BME280;64513;56.258;43.980;2023-04-25T05:49:40;99880.94;;;32.15;28.30
75867;BME280;64513;56.258;43.980;2023-04-25T05:52:04;99872.90;;;32.27;28.09
75867;BME280;64513;56.258;43.980;2023-04-25T05:54:28;99878.13;;;32.41;27.71
75867;BME280;64513;56.258;43.980;2023-04-25T05:56:52;99868.07;;;32.55;27.72
75867;BME280;64513;56.258;43.980;2023-04-25T05:59:17;99870.09;;;32.70;27.63
75867;BME280;64513;56.258;43.980;2023-04-25T06:01:41;99867.84;;;32.85;27.58
75867;BME280;64513;56.258;43.980;2023-04-25T06:04:05;99862.05;;;32.99;27.08
75867;BME280;64513;56.258;43.980;2023-04-25T06:06:30;99868.05;;;33.10;27.20
75867;BME280;64513;56.258;43.980;2023-04-25T06:08:54;99866.13;;;33.27;26.82
75867;BME280;64513;56.258;43.980;2023-04-25T06:11:18;99850.09;;;33.42;26.51
75867;BME280;64513;56.258;43.980;2023-04-25T06:13:42;99846.66;;;33.54;26.64
75867;BME280;64513;56.258;43.980;2023-04-25T06:16:07;99852.55;;;33.69;26.34
75867;BME280;64513;56.258;43.980;2023-04-25T06:18:31;99842.89;;;33.81;26.11
75867;BME280;64513;56.258;43.980;2023-04-25T06:20:55;99846.45;;;33.94;25.66
75867;BME280;64513;56.258;43.980;2023-04-25T06:23:19;99848.91;;;34.04;25.35
75867;BME280;64513;56.258;43.980;2023-04-25T06:25:44;99855.32;;;34.14;25.01
75867;BME280;64513;56.258;43.980;2023-04-25T06:28:08;99853.56;;;34.20;24.92
75867;BME280;64513;56.258;43.980;2023-04-25T06:30:32;99845.58;;;34.26;25.02
75867;BME280;64513;56.258;43.980;2023-04-25T06:32:57;99837.62;;;34.31;25.06
75867;BME280;64513;56.258;43.980;2023-04-25T06:35:21;99840.48;;;34.40;25.10
75867;BME280;64513;56.258;43.980;2023-04-25T06:37:45;99829.61;;;34.49;25.14
75867;BME280;64513;56.258;43.980;2023-04-25T06:40:10;99851.72;;;34.59;24.72
75867;BME280;64513;56.258;43.980;2023-04-25T06:42:34;99840.94;;;34.64;24.59
75867;BME280;64513;56.258;43.980;2023-04-25T06:44:58;99852.16;;;34.70;24.79
75867;BME280;64513;56.258;43.980;2023-04-25T06:47:25;99852.83;;;34.74;24.45
75867;BME280;64513;56.258;43.980;2023-04-25T06:49:49;99860.53;;;34.79;24.53
75867;BME280;64513;56.258;43.980;2023-04-25T06:52:13;99852.16;;;34.70;24.25
75867;BME280;64513;56.258;43.980;2023-04-25T06:54:39;99847.34;;;34.74;24.33
75867;BME280;64513;56.258;43.980;2023-04-25T06:57:03;99848.44;;;34.76;24.60
75867;BME280;64513;56.258;43.980;2023-04-25T06:59:27;99822.08;;;34.79;24.91
75867;BME280;64513;56.258;43.980;2023-04-25T07:01:51;99847.57;;;34.79;24.64
75867;BME280;64513;56.258;43.980;2023-04-25T07:04:16;99826.57;;;34.73;24.09
75867;BME280;64513;56.258;43.980;2023-04-25T07:06:40;99831.48;;;34.53;24.20
75867;BME280;64513;56.258;43.980;2023-04-25T07:09:04;99839.70;;;34.40;24.02
75867;BME280;64513;56.258;43.980;2023-04-25T07:11:28;99825.44;;;34.16;24.08
75867;BME280;64513;56.258;43.980;2023-04-25T07:13:53;99842.17;;;33.93;24.46
75867;BME280;64513;56.258;43.980;2023-04-25T07:16:17;99848.95;;;33.88;24.54
75867;BME280;64513;56.258;43.980;2023-04-25T07:18:41;99852.03;;;33.90;24.57
75867;BME280;64513;56.258;43.980;2023-04-25T07:21:06;99840.49;;;33.83;24.55
75867;BME280;64513;56.258;43.980;2023-04-25T07:23:30;99845.72;;;33.77;24.76
75867;BME280;64513;56.258;43.980;2023-04-25T07:25:54;99842.55;;;33.62;25.20
75867;BME280;64513;56.258;43.980;2023-04-25T07:28:19;99838.63;;;33.31;24.93
75867;BME280;64513;56.258;43.980;2023-04-25T07:30:43;99851.02;;;33.19;24.91
75867;BME280;64513;56.258;43.980;2023-04-25T07:33:07;99830.91;;;33.26;25.03
75867;BME280;64513;56.258;43.980;2023-04-25T07:35:31;99826.44;;;33.16;24.94
75867;BME280;64513;56.258;43.980;2023-04-25T07:37:55;99838.58;;;32.98;25.36
75867;BME280;64513;56.258;43.980;2023-04-25T07:40:21;99848.84;;;32.94;25.11
75867;BME280;64513;56.258;43.980;2023-04-25T07:42:45;99827.11;;;32.87;25.20
75867;BME280;64513;56.258;43.980;2023-04-25T07:45:10;99825.71;;;32.79;24.89
75867;BME280;64513;56.258;43.980;2023-04-25T07:47:35;99823.68;;;32.63;24.90
75867;BME280;64513;56.258;43.980;2023-04-25T07:50:00;99832.84;;;32.57;24.91
75867;BME280;64513;56.258;43.980;2023-04-25T07:52:25;99818.58;;;32.46;25.36
75867;BME280;64513;56.258;43.980;2023-04-25T07:54:50;99823.22;;;32.49;25.27
75867;BME280;64513;56.258;43.980;2023-04-25T07:57:14;99812.90;;;32.56;25.77
75867;BME280;64513;56.258;43.980;2023-04-25T07:59:38;99823.54;;;32.70;25.61
75867;BME280;64513;56.258;43.980;2023-04-25T08:02:02;99813.91;;;32.82;25.75
75867;BME280;64513;56.258;43.980;2023-04-25T08:04:26;99802.28;;;32.94;25.70
75867;BME280;64513;56.258;43.980;2023-04-25T08:06:51;99809.49;;;33.04;25.18
75867;BME280;64513;56.258;43.980;2023-04-25T08:09:35;99806.30;;;33.06;25.01
75867;BME280;64513;56.258;43.980;2023-04-25T08:11:59;99801.59;;;33.06;25.15
75867;BME280;64513;56.258;43.980;2023-04-25T08:14:23;99795.27;;;33.09;25.35
75867;BME280;64513;56.258;43.980;2023-04-25T08:16:47;99795.61;;;33.11;24.87
75867;BME280;64513;56.258;43.980;2023-04-25T08:19:12;99789.13;;;33.05;24.75
75867;BME280;64513;56.258;43.980;2023-04-25T08:21:36;99795.68;;;32.92;24.77
75867;BME280;64513;56.258;43.980;2023-04-25T08:24:00;99781.27;;;32.71;25.09
75867;BME280;64513;56.258;43.980;2023-04-25T08:26:25;99781.20;;;32.75;25.30
75867;BME280;64513;56.258;43.980;2023-04-25T08:28:49;99789.48;;;32.71;25.46
75867;BME280;64513;56.258;43.980;2023-04-25T08:31:14;99769.27;;;32.65;25.56
75867;BME280;64513;56.258;43.980;2023-04-25T08:33:38;99776.22;;;32.70;25.52
75867;BME280;64513;56.258;43.980;2023-04-25T08:36:02;99771.94;;;32.69;25.47
75867;BME280;64513;56.258;43.980;2023-04-25T08:38:27;99776.71;;;32.65;25.21
75867;BME280;64513;56.258;43.980;2023-04-25T08:40:51;99770.54;;;32.61;25.24
75867;BME280;64513;56.258;43.980;2023-04-25T08:43:19;99776.11;;;32.57;25.45
75867;BME280;64513;56.258;43.980;2023-04-25T08:45:43;99767.63;;;32.52;25.47
75867;BME280;64513;56.258;43.980;2023-04-25T08:48:28;99762.60;;;32.30;25.64
75867;BME280;64513;56.258;43.980;2023-04-25T08:50:53;99764.31;;;32.24;25.66
75867;BME280;64513;56.258;43.980;2023-04-25T08:56:05;99752.45;;;32.11;25.71
75867;BME280;64513;56.258;43.980;2023-04-25T08:58:30;99759.23;;;32.03;25.52
75867;BME280;64513;56.258;43.980;2023-04-25T09:00:56;99762.17;;;31.72;25.45
75867;BME280;64513;56.258;43.980;2023-04-25T09:03:21;99760.41;;;31.39;25.99
75867;BME280;64513;56.258;43.980;2023-04-25T09:05:45;99767.08;;;31.15;26.32
75867;BME280;64513;56.258;43.980;2023-04-25T09:08:10;99761.19;;;30.89;26.37
75867;BME280;64513;56.258;43.980;2023-04-25T09:10:34;99767.77;;;30.68;26.57
75867;BME280;64513;56.258;43.980;2023-04-25T09:16:03;99759.70;;;30.27;26.91
75867;BME280;64513;56.258;43.980;2023-04-25T09:18:29;99751.87;;;29.99;27.11
75867;BME280;64513;56.258;43.980;2023-04-25T09:20:54;99749.71;;;29.80;27.35
75867;BME280;64513;56.258;43.980;2023-04-25T09:23:20;99746.40;;;29.61;27.61
75867;BME280;64513;56.258;43.980;2023-04-25T09:25:45;99740.69;;;29.49;27.93
75867;BME280;64513;56.258;43.980;2023-04-25T09:28:11;99743.50;;;29.38;28.04
75867;BME280;64513;56.258;43.980;2023-04-25T09:30:36;99744.34;;;29.28;28.12
75867;BME280;64513;56.258;43.980;2023-04-25T09:33:20;99740.58;;;29.15;28.31
75867;BME280;64513;56.258;43.980;2023-04-25T09:35:46;99729.80;;;29.01;28.68
75867;BME280;64513;56.258;43.980;2023-04-25T09:38:13;99735.36;;;28.86;28.88
75867;BME280;64513;56.258;43.980;2023-04-25T09:43:25;99733.19;;;28.60;29.32
75867;BME280;64513;56.258;43.980;2023-04-25T09:45:50;99740.67;;;28.42;29.53
75867;BME280;64513;56.258;43.980;2023-04-25T09:48:35;99727.15;;;28.27;29.66
75867;BME280;64513;56.258;43.980;2023-04-25T09:51:19;99738.06;;;28.13;29.52
75867;BME280;64513;56.258;43.980;2023-04-25T09:53:45;99731.91;;;27.95;29.77
75867;BME280;64513;56.258;43.980;2023-04-25T09:56:30;99735.46;;;27.78;29.95
75867;BME280;64513;56.258;43.980;2023-04-25T09:58:55;99732.39;;;27.62;30.29
75867;BME280;64513;56.258;43.980;2023-04-25T10:01:21;99723.08;;;27.48;30.49
75867;BME280;64513;56.258;43.980;2023-04-25T10:03:48;99718.06;;;27.33;30.52
75867;BME280;64513;56.258;43.980;2023-04-25T10:06:18;99743.67;;;27.17;30.41
75867;BME280;64513;56.258;43.980;2023-04-25T10:08:41;99720.79;;;27.01;30.46
75867;BME280;64513;56.258;43.980;2023-04-25T10:11:08;99721.15;;;26.88;30.64
75867;BME280;64513;56.258;43.980;2023-04-25T10:13:35;99720.34;;;26.77;30.82
75867;BME280;64513;56.258;43.980;2023-04-25T10:16:33;99723.83;;;26.67;30.81
75867;BME280;64513;56.258;43.980;2023-04-25T10:18:28;99724.99;;;26.59;31.13
75867;BME280;64513;56.258;43.980;2023-04-25T10:21:27;99723.42;;;26.54;31.25
75867;BME280;64513;56.258;43.980;2023-04-25T10:23:20;99715.66;;;26.49;31.12
75867;BME280;64513;56.258;43.980;2023-04-25T10:25:45;99714.09;;;26.45;30.98
75867;BME280;64513;56.258;43.980;2023-04-25T10:28:09;99717.19;;;26.40;31.13
75867;BME280;64513;56.258;43.980;2023-04-25T10:30:33;99693.93;;;26.35;31.73
75867;BME280;64513;56.258;43.980;2023-04-25T10:32:59;99716.38;;;26.32;31.62
75867;BME280;64513;56.258;43.980;2023-04-25T10:35:44;99703.56;;;26.26;31.55
75867;BME280;64513;56.258;43.980;2023-04-25T10:38:28;99710.51;;;26.19;31.62
75867;BME280;64513;56.258;43.980;2023-04-25T10:41:13;99715.92;;;26.12;31.83
75867;BME280;64513;56.258;43.980;2023-04-25T10:43:40;99703.11;;;26.06;31.57
75867;BME280;64513;56.258;43.980;2023-04-25T10:46:58;99701.52;;;25.98;31.75
75867;BME280;64513;56.258;43.980;2023-04-25T10:49:10;99695.32;;;25.94;31.87
75867;BME280;64513;56.258;43.980;2023-04-25T10:51:36;99707.30;;;25.89;31.94
75867;BME280;64513;56.258;43.980;2023-04-25T10:54:22;99692.95;;;25.85;31.75
75867;BME280;64513;56.258;43.980;2023-04-25T10:56:48;99697.59;;;25.81;31.76
75867;BME280;64513;56.258;43.980;2023-04-25T11:02:01;99691.73;;;25.72;31.92
75867;BME280;64513;56.258;43.980;2023-04-25T11:04:47;99702.13;;;25.66;31.87
75867;BME280;64513;56.258;43.980;2023-04-25T11:08:04;99699.00;;;25.61;31.76
75867;BME280;64513;56.258;43.980;2023-04-25T11:09:58;99696.23;;;25.53;31.86
75867;BME280;64513;56.258;43.980;2023-04-25T11:12:25;99693.91;;;25.48;31.75
75867;BME280;64513;56.258;43.980;2023-04-25T11:14:49;99682.64;;;25.43;31.75
75867;BME280;64513;56.258;43.980;2023-04-25T11:17:13;99695.75;;;25.37;31.88
75867;BME280;64513;56.258;43.980;2023-04-25T11:19:38;99688.00;;;25.32;31.93
75867;BME280;64513;56.258;43.980;2023-04-25T11:22:02;99692.61;;;25.28;32.07
75867;BME280;64513;56.258;43.980;2023-04-25T11:27:13;99681.28;;;25.12;32.14
75867;BME280;64513;56.258;43.980;2023-04-25T11:29:37;99673.09;;;25.01;32.26
75867;BME280;64513;56.258;43.980;2023-04-25T11:32:02;99682.22;;;24.90;32.24
75867;BME280;64513;56.258;43.980;2023-04-25T11:34:29;99676.73;;;24.79;32.55
75867;BME280;64513;56.258;43.980;2023-04-25T11:36:54;99681.69;;;24.73;32.90
75867;BME280;64513;56.258;43.980;2023-04-25T11:39:19;99689.02;;;24.69;33.38
75867;BME280;64513;56.258;43.980;2023-04-25T11:41:43;99665.83;;;24.68;33.28
75867;BME280;64513;56.258;43.980;2023-04-25T11:44:08;99670.45;;;24.68;33.67
75867;BME280;64513;56.258;43.980;2023-04-25T11:46:34;99680.49;;;24.67;33.84
75867;BME280;64513;56.258;43.980;2023-04-25T11:48:58;99682.79;;;24.65;34.03
75867;BME280;64513;56.258;43.980;2023-04-25T11:51:23;99682.75;;;24.62;34.07
75867;BME280;64513;56.258;43.980;2023-04-25T11:53:48;99671.89;;;24.58;34.28
75867;BME280;64513;56.258;43.980;2023-04-25T11:56:13;99684.22;;;24.52;34.43
75867;BME280;64513;56.258;43.980;2023-04-25T12:04:30;99678.67;;;24.38;34.99
75867;BME280;64513;56.258;43.980;2023-04-25T12:06:55;99664.29;;;24.30;35.23
75867;BME280;64513;56.258;43.980;2023-04-25T12:12:09;99671.94;;;24.25;35.69
75867;BME280;64513;56.258;43.980;2023-04-25T12:14:35;99652.94;;;24.18;35.72
75867;BME280;64513;56.258;43.980;2023-04-25T12:17:02;99659.07;;;24.14;35.93
75867;BME280;64513;56.258;43.980;2023-04-25T12:25:00;99649.30;;;24.03;36.04
75867;BME280;64513;56.258;43.980;2023-04-25T12:27:26;99658.09;;;23.96;36.18
75867;BME280;64513;56.258;43.980;2023-04-25T12:29:52;99639.53;;;23.91;36.24
75867;BME280;64513;56.258;43.980;2023-04-25T12:32:17;99643.69;;;23.85;36.49
75867;BME280;64513;56.258;43.980;2023-04-25T12:34:41;99637.88;;;23.83;36.59
75867;BME280;64513;56.258;43.980;2023-04-25T12:37:06;99633.55;;;23.75;36.68
75867;BME280;64513;56.258;43.980;2023-04-25T12:39:30;99638.43;;;23.66;36.67
75867;BME280;64513;56.258;43.980;2023-04-25T12:41:54;99629.84;;;23.57;36.92
75867;BME280;64513;56.258;43.980;2023-04-25T12:44:20;99638.95;;;23.49;37.21
75867;BME280;64513;56.258;43.980;2023-04-25T12:46:44;99641.14;;;23.39;37.13
75867;BME280;64513;56.258;43.980;2023-04-25T12:49:08;99637.53;;;23.28;37.30
75867;BME280;64513;56.258;43.980;2023-04-25T12:51:33;99640.41;;;23.16;37.53
75867;BME280;64513;56.258;43.980;2023-04-25T12:53:57;99649.43;;;23.01;37.83
75867;BME280;64513;56.258;43.980;2023-04-25T12:56:21;99642.61;;;22.84;38.31
75867;BME280;64513;56.258;43.980;2023-04-25T12:58:47;99656.19;;;22.68;38.74
75867;BME280;64513;56.258;43.980;2023-04-25T13:01:11;99661.30;;;22.51;39.28
75867;BME280;64513;56.258;43.980;2023-04-25T13:03:36;99638.69;;;22.36;39.93
75867;BME280;64513;56.258;43.980;2023-04-25T13:06:00;99654.23;;;22.23;40.41
75867;BME280;64513;56.258;43.980;2023-04-25T13:08:24;99660.98;;;22.14;41.03
75867;BME280;64513;56.258;43.980;2023-04-25T13:10:49;99663.48;;;22.03;42.04
75867;BME280;64513;56.258;43.980;2023-04-25T13:13:13;99674.69;;;21.89;43.29